createdAt,value
2023-05-19T00:01:57.724Z,14.74
2023-05-19T00:04:32.750Z,14.70
2023-05-19T00:07:08.752Z,14.68
2023-05-19T00:09:43.824Z,14.66
2023-05-19T00:12:18.904Z,14.64
2023-05-19T00:14:54.736Z,14.66
2023-05-19T00:17:29.151Z,14.67
2023-05-19T00:20:07.808Z,14.68
2023-05-19T00:22:41.470Z,14.70
2023-05-19T00:25:15.469Z,14.71
2023-05-19T00:27:49.064Z,14.71
2023-05-19T00:30:23.553Z,14.70
2023-05-19T00:32:57.965Z,14.68
2023-05-19T00:35:32.360Z,14.65
2023-05-19T00:38:06.297Z,14.59
2023-05-19T00:40:43.507Z,14.56
2023-05-19T00:43:17.338Z,14.55
2023-05-19T00:45:51.107Z,14.56
2023-05-19T00:48:24.790Z,14.58
2023-05-19T00:51:04.910Z,14.61
2023-05-19T00:53:39.244Z,14.64
2023-05-19T00:56:13.329Z,14.66
2023-05-19T00:58:47.706Z,14.67
2023-05-19T01:01:22.006Z,14.67
2023-05-19T01:03:57.413Z,14.68
2023-05-19T01:06:31.601Z,14.65
2023-05-19T01:09:05.196Z,14.60
2023-05-19T01:11:38.973Z,14.58
2023-05-19T01:14:12.736Z,14.56
2023-05-19T01:16:52.259Z,14.53
2023-05-19T01:19:52.850Z,14.48
2023-05-19T01:22:43.348Z,14.43
2023-05-19T01:25:32.987Z,14.38
2023-05-19T01:28:26.152Z,14.39
2023-05-19T01:31:01.839Z,14.41
2023-05-19T01:33:36.867Z,14.46
2023-05-19T01:36:12.011Z,14.50
2023-05-19T01:38:46.807Z,14.52
2023-05-19T01:41:21.295Z,14.53
2023-05-19T01:43:57.640Z,14.52
2023-05-19T01:46:31.428Z,14.47
2023-05-19T01:49:05.556Z,14.43
2023-05-19T01:51:41.988Z,14.38
2023-05-19T01:54:15.548Z,14.34
2023-05-19T01:56:54.898Z,14.34
2023-05-19T01:59:39.437Z,14.39
2023-05-19T02:02:18.859Z,14.43
2023-05-19T02:04:56.581Z,14.47
2023-05-19T02:07:37.499Z,14.48
2023-05-19T02:10:16.880Z,14.54
2023-05-19T02:12:51.928Z,14.60
2023-05-19T02:15:29.017Z,14.68
2023-05-19T02:18:05.415Z,14.77
2023-05-19T02:20:39.036Z,14.86
2023-05-19T02:23:12.615Z,14.93
2023-05-19T02:25:47.109Z,15.00
2023-05-19T02:28:21.148Z,15.09
2023-05-19T02:30:54.878Z,15.19
2023-05-19T02:33:31.566Z,15.28
2023-05-19T02:36:05.281Z,15.39
2023-05-19T02:38:39.049Z,15.55
2023-05-19T02:41:12.870Z,15.77
2023-05-19T02:43:46.741Z,16.04
2023-05-19T02:46:20.402Z,16.31
2023-05-19T02:48:54.944Z,16.57
2023-05-19T02:51:29.415Z,16.81
2023-05-19T02:54:04.196Z,17.08
2023-05-19T02:56:37.897Z,17.36
2023-05-19T02:59:11.603Z,17.63
2023-05-19T03:01:45.292Z,17.92
2023-05-19T03:04:20.520Z,18.28
2023-05-19T03:06:54.643Z,18.73
2023-05-19T03:09:28.473Z,19.16
2023-05-19T03:12:04.711Z,19.51
2023-05-19T03:14:39.504Z,19.62
2023-05-19T03:17:13.766Z,19.69
2023-05-19T03:19:47.376Z,19.76
2023-05-19T03:22:21.509Z,19.99
2023-05-19T03:24:55.005Z,20.51
2023-05-19T03:27:28.899Z,21.10
2023-05-19T03:30:06.257Z,21.87
2023-05-19T03:32:40.632Z,22.68
2023-05-19T03:35:14.241Z,23.39
2023-05-19T03:37:50.626Z,24.10
2023-05-19T03:40:24.443Z,24.98
2023-05-19T03:42:58.615Z,25.31
2023-05-19T03:45:32.358Z,25.09
2023-05-19T03:48:06.506Z,25.57
2023-05-19T03:50:40.206Z,26.29
2023-05-19T03:53:14.476Z,26.96
2023-05-19T03:55:49.200Z,27.30
2023-05-19T03:58:22.877Z,27.13
2023-05-19T04:00:56.734Z,27.41
2023-05-19T04:03:30.444Z,27.21
2023-05-19T04:06:04.394Z,27.08
2023-05-19T04:08:38.269Z,26.95
2023-05-19T04:11:12.186Z,27.36
2023-05-19T04:13:45.987Z,28.05
2023-05-19T04:16:20.183Z,29.33
2023-05-19T04:18:53.837Z,30.46
2023-05-19T04:21:27.900Z,31.27
2023-05-19T04:24:01.666Z,32.19
2023-05-19T04:26:35.308Z,32.63
2023-05-19T04:29:11.129Z,32.90
2023-05-19T04:31:45.543Z,33.13
2023-05-19T04:34:20.438Z,33.60
2023-05-19T04:36:55.916Z,33.96
2023-05-19T04:39:30.201Z,34.50
2023-05-19T04:42:04.476Z,35.11
2023-05-19T04:44:38.419Z,35.33
2023-05-19T04:47:15.471Z,35.11
2023-05-19T04:49:49.221Z,34.76
2023-05-19T04:52:23.381Z,34.28
2023-05-19T04:54:58.991Z,34.60
2023-05-19T04:57:32.800Z,33.85
2023-05-19T05:00:09.421Z,33.01
2023-05-19T05:02:45.776Z,33.09
2023-05-19T05:05:20.060Z,32.95
2023-05-19T05:07:54.449Z,32.38
2023-05-19T05:10:28.556Z,31.68
2023-05-19T05:13:03.250Z,31.67
2023-05-19T05:15:40.051Z,32.14
2023-05-19T05:18:15.483Z,31.77
2023-05-19T05:20:50.915Z,31.28
2023-05-19T05:23:23.282Z,30.51
2023-05-19T05:25:58.134Z,29.82
2023-05-19T05:28:31.823Z,29.31
2023-05-19T05:31:06.192Z,29.13
2023-05-19T05:33:40.679Z,30.13
2023-05-19T05:36:14.600Z,31.26
2023-05-19T05:38:49.047Z,31.55
2023-05-19T05:41:25.258Z,31.24
2023-05-19T05:43:59.302Z,31.89
2023-05-19T05:46:33.761Z,33.38
2023-05-19T05:49:10.498Z,34.76
2023-05-19T05:51:57.940Z,35.92
2023-05-19T05:54:40.146Z,36.65
2023-05-19T05:57:18.117Z,36.67
2023-05-19T05:59:51.771Z,36.96
2023-05-19T06:02:28.565Z,37.14
2023-05-19T06:05:03.022Z,37.58
2023-05-19T06:07:36.618Z,38.12
2023-05-19T06:10:14.331Z,37.89
2023-05-19T06:12:47.955Z,37.25
2023-05-19T06:15:21.577Z,36.49
2023-05-19T06:17:55.317Z,35.32
2023-05-19T06:20:29.123Z,34.43
2023-05-19T06:23:05.108Z,34.00
2023-05-19T06:25:38.090Z,33.63
2023-05-19T06:28:11.803Z,33.82
2023-05-19T06:30:45.529Z,34.14
2023-05-19T06:33:22.367Z,35.05
2023-05-19T06:35:56.204Z,35.52
2023-05-19T06:38:29.824Z,36.25
2023-05-19T06:41:03.536Z,36.60
2023-05-19T06:43:37.854Z,37.02
2023-05-19T06:46:13.449Z,37.61
2023-05-19T06:48:47.404Z,38.44
2023-05-19T06:51:23.953Z,39.20
2023-05-19T06:53:57.822Z,39.08
2023-05-19T06:56:35.254Z,38.02
2023-05-19T06:59:08.876Z,37.14
2023-05-19T07:01:42.427Z,36.63
2023-05-19T07:04:16.840Z,35.88
2023-05-19T07:06:50.746Z,35.09
2023-05-19T07:09:25.850Z,34.59
2023-05-19T07:12:02.006Z,33.89
2023-05-19T07:14:37.110Z,32.97
2023-05-19T07:17:12.194Z,32.10
2023-05-19T07:19:48.168Z,31.39
2023-05-19T07:22:24.727Z,30.71
2023-05-19T07:24:57.495Z,30.37
2023-05-19T07:27:32.697Z,30.04
2023-05-19T07:30:07.006Z,29.97
2023-05-19T07:32:42.266Z,30.13
2023-05-19T07:35:15.922Z,30.33
2023-05-19T07:37:49.685Z,30.40
2023-05-19T07:40:23.263Z,30.51
2023-05-19T07:42:56.986Z,30.30
2023-05-19T07:45:31.046Z,30.23
2023-05-19T07:48:04.874Z,30.32
2023-05-19T07:50:41.131Z,30.45
2023-05-19T07:53:14.876Z,30.28
2023-05-19T07:55:48.689Z,30.36
2023-05-19T07:58:22.882Z,30.47
2023-05-19T08:00:59.009Z,30.16
2023-05-19T08:03:33.312Z,29.58
2023-05-19T08:06:08.163Z,29.00
2023-05-19T08:08:43.105Z,28.84
2023-05-19T08:11:17.656Z,28.86
2023-05-19T08:13:51.415Z,29.00
2023-05-19T08:16:25.725Z,29.11
2023-05-19T08:19:03.334Z,29.26
2023-05-19T08:21:39.018Z,29.16
2023-05-19T08:24:13.526Z,28.89
2023-05-19T08:26:48.009Z,28.71
2023-05-19T08:29:21.583Z,28.78
2023-05-19T08:31:55.862Z,28.86
2023-05-19T08:34:29.409Z,28.83
2023-05-19T08:37:03.625Z,28.89
2023-05-19T08:39:37.380Z,28.96
2023-05-19T08:42:14.641Z,28.92
2023-05-19T08:44:48.550Z,28.83
2023-05-19T08:47:23.275Z,28.84
2023-05-19T08:50:04.410Z,28.92
2023-05-19T08:52:49.536Z,28.96
2023-05-19T08:55:31.723Z,29.11
2023-05-19T08:58:06.634Z,29.17
2023-05-19T09:00:42.133Z,29.06
2023-05-19T09:03:22.876Z,28.93
2023-05-19T09:05:57.292Z,28.66
2023-05-19T09:08:31.108Z,28.41
2023-05-19T09:11:04.773Z,28.22
2023-05-19T09:13:38.762Z,28.00
2023-05-19T09:16:13.262Z,27.92
2023-05-19T09:18:58.309Z,27.79
2023-05-19T09:21:35.591Z,27.69
2023-05-19T09:24:11.594Z,27.67
2023-05-19T09:26:47.192Z,27.68
2023-05-19T09:29:21.533Z,27.68
2023-05-19T09:31:56.444Z,27.49
2023-05-19T09:34:30.179Z,27.29
2023-05-19T09:37:04.496Z,27.14
2023-05-19T09:39:38.626Z,26.98
2023-05-19T09:42:12.272Z,26.93
2023-05-19T09:44:46.203Z,26.95
2023-05-19T09:47:19.900Z,27.03
2023-05-19T09:49:53.361Z,27.12
2023-05-19T09:52:45.033Z,27.14
2023-05-19T09:55:23.613Z,27.04
2023-05-19T09:58:00.288Z,27.02
2023-05-19T10:00:35.580Z,27.06
2023-05-19T10:03:10.011Z,26.97
2023-05-19T10:05:43.827Z,26.77
2023-05-19T10:08:18.357Z,26.59
2023-05-19T10:10:52.295Z,26.57
2023-05-19T10:13:26.660Z,26.60
2023-05-19T10:16:01.668Z,26.59
2023-05-19T10:18:39.614Z,26.56
2023-05-19T10:21:14.871Z,26.54
2023-05-19T10:23:49.052Z,26.53
2023-05-19T10:26:23.619Z,26.43
2023-05-19T10:28:58.185Z,26.56
2023-05-19T10:31:36.642Z,26.74
2023-05-19T10:34:30.227Z,26.88
2023-05-19T10:37:13.607Z,27.04
2023-05-19T10:39:47.877Z,27.09
2023-05-19T10:42:31.404Z,27.05
2023-05-19T10:45:11.590Z,27.01
2023-05-19T10:47:46.253Z,26.85
2023-05-19T10:50:23.713Z,26.75
2023-05-19T10:53:00.630Z,26.73
2023-05-19T10:55:53.147Z,26.74
2023-05-19T10:58:52.493Z,26.73
2023-05-19T11:01:26.888Z,26.54
2023-05-19T11:04:06.099Z,26.31
2023-05-19T11:06:41.681Z,26.14
2023-05-19T11:09:22.469Z,26.03
2023-05-19T11:12:08.185Z,25.98
2023-05-19T11:14:42.049Z,26.04
2023-05-19T11:17:18.331Z,26.02
2023-05-19T11:19:59.976Z,25.86
2023-05-19T11:22:36.706Z,25.80
2023-05-19T11:25:11.176Z,25.74
2023-05-19T11:27:45.690Z,25.66
2023-05-19T11:30:21.717Z,25.66
2023-05-19T11:32:54.219Z,25.68
2023-05-19T11:35:28.254Z,25.66
2023-05-19T11:38:04.921Z,25.67
2023-05-19T11:40:38.816Z,25.74
2023-05-19T11:43:12.796Z,25.79
2023-05-19T11:45:47.507Z,25.80
2023-05-19T11:48:24.684Z,25.81
2023-05-19T11:50:58.517Z,25.78
2023-05-19T11:53:34.037Z,25.76
2023-05-19T11:56:09.682Z,25.77
2023-05-19T11:58:43.273Z,25.83
2023-05-19T12:01:17.049Z,25.91
2023-05-19T12:03:50.951Z,25.92
2023-05-19T12:06:24.805Z,25.83
2023-05-19T12:09:00.225Z,25.73
2023-05-19T12:11:35.631Z,25.60
2023-05-19T12:14:10.047Z,25.34
2023-05-19T12:16:45.424Z,25.05
2023-05-19T12:19:20.754Z,24.82
2023-05-19T12:21:54.608Z,24.73
2023-05-19T12:24:28.738Z,24.65
2023-05-19T12:27:11.855Z,24.56
2023-05-19T12:29:50.906Z,24.45
2023-05-19T12:32:27.206Z,24.37
2023-05-19T12:34:59.280Z,24.32
2023-05-19T12:37:33.896Z,24.29
2023-05-19T12:40:09.228Z,24.32
2023-05-19T12:42:49.397Z,24.31
2023-05-19T12:45:26.251Z,24.20
2023-05-19T12:48:00.618Z,24.04
2023-05-19T12:50:36.382Z,23.93
2023-05-19T12:53:12.588Z,23.82
2023-05-19T12:55:47.320Z,23.71
2023-05-19T12:58:24.657Z,23.62
2023-05-19T13:01:02.619Z,23.53
2023-05-19T13:03:49.603Z,23.44
2023-05-19T13:06:23.788Z,23.33
2023-05-19T13:08:57.642Z,23.17
2023-05-19T13:11:31.463Z,23.06
2023-05-19T13:14:05.554Z,23.01
2023-05-19T13:16:43.240Z,22.97
2023-05-19T13:19:24.933Z,22.88
2023-05-19T13:21:59.162Z,22.78
2023-05-19T13:24:34.772Z,22.70
2023-05-19T13:27:11.809Z,22.61
2023-05-19T13:29:45.794Z,22.56
2023-05-19T13:32:20.708Z,22.53
2023-05-19T13:34:54.607Z,22.53
2023-05-19T13:37:28.942Z,22.52
2023-05-19T13:40:02.684Z,22.46
2023-05-19T13:42:37.293Z,22.36
2023-05-19T13:45:13.301Z,22.32
2023-05-19T13:47:46.815Z,22.30
2023-05-19T13:50:20.483Z,22.27
2023-05-19T13:52:54.322Z,22.25
2023-05-19T13:55:28.206Z,22.26
2023-05-19T13:58:01.827Z,22.29
2023-05-19T14:00:36.565Z,22.29
2023-05-19T14:03:10.652Z,22.26
2023-05-19T14:05:44.607Z,22.22
2023-05-19T14:08:18.207Z,22.17
2023-05-19T14:10:52.988Z,22.15
2023-05-19T14:13:34.714Z,22.13
2023-05-19T14:16:13.764Z,22.10
2023-05-19T14:18:48.905Z,22.06
2023-05-19T14:21:22.463Z,22.04
2023-05-19T14:23:55.996Z,21.99
2023-05-19T14:26:29.692Z,21.90
2023-05-19T14:29:04.861Z,21.86
2023-05-19T14:31:38.768Z,21.82
2023-05-19T14:34:18.182Z,21.79
2023-05-19T14:36:52.194Z,21.77
2023-05-19T14:39:25.686Z,21.76
2023-05-19T14:41:59.998Z,21.75
2023-05-19T14:44:35.888Z,21.74
2023-05-19T14:47:11.788Z,21.74
2023-05-19T14:49:46.075Z,21.72
2023-05-19T14:52:21.874Z,21.67
2023-05-19T14:54:56.489Z,21.60
2023-05-19T14:57:30.348Z,21.52
2023-05-19T15:00:04.124Z,21.47
2023-05-19T15:02:37.878Z,21.42
2023-05-19T15:05:13.421Z,21.37
2023-05-19T15:07:47.457Z,21.30
2023-05-19T15:10:21.450Z,21.21
2023-05-19T15:12:55.086Z,21.15
2023-05-19T15:15:28.513Z,21.08
2023-05-19T15:18:02.100Z,20.99
2023-05-19T15:20:36.478Z,20.88
2023-05-19T15:23:10.440Z,20.81
2023-05-19T15:25:45.830Z,20.75
2023-05-19T15:28:19.391Z,20.71
2023-05-19T15:30:57.376Z,20.70
2023-05-19T15:33:31.441Z,20.69
2023-05-19T15:36:07.876Z,20.69
2023-05-19T15:38:42.916Z,20.67
2023-05-19T15:41:16.572Z,20.67
2023-05-19T15:43:50.130Z,20.65
2023-05-19T15:46:23.762Z,20.64
2023-05-19T15:48:57.499Z,20.62
2023-05-19T15:51:31.967Z,20.61
2023-05-19T15:54:07.866Z,20.61
2023-05-19T15:56:41.472Z,20.62
2023-05-19T15:59:15.036Z,20.61
2023-05-19T16:01:52.083Z,20.58
2023-05-19T16:04:26.779Z,20.53
2023-05-19T16:07:00.453Z,20.46
2023-05-19T16:09:34.508Z,20.39
2023-05-19T16:12:09.144Z,20.31
2023-05-19T16:14:42.828Z,20.24
2023-05-19T16:17:19.612Z,20.19
2023-05-19T16:19:53.525Z,20.15
2023-05-19T16:22:27.593Z,20.11
2023-05-19T16:25:01.130Z,20.08
2023-05-19T16:27:34.816Z,20.07
2023-05-19T16:30:09.999Z,20.05
2023-05-19T16:32:43.923Z,20.03
2023-05-19T16:35:17.525Z,20.01
2023-05-19T16:37:52.098Z,20.02
2023-05-19T16:40:25.732Z,20.01
2023-05-19T16:43:00.275Z,19.99
2023-05-19T16:45:34.009Z,19.94
2023-05-19T16:48:08.423Z,19.88
2023-05-19T16:50:42.141Z,19.81
2023-05-19T16:53:16.169Z,19.74
2023-05-19T16:55:49.988Z,19.70
2023-05-19T16:58:23.786Z,19.66
2023-05-19T17:00:59.256Z,19.62
2023-05-19T17:03:33.777Z,19.50
2023-05-19T17:06:08.969Z,19.41
2023-05-19T17:08:42.939Z,19.35
2023-05-19T17:11:19.753Z,19.31
2023-05-19T17:13:53.389Z,19.25
2023-05-19T17:16:27.400Z,19.22
2023-05-19T17:19:01.303Z,19.21
2023-05-19T17:21:34.909Z,19.21
2023-05-19T17:24:09.314Z,19.22
2023-05-19T17:26:43.017Z,19.23
2023-05-19T17:29:16.570Z,19.24
2023-05-19T17:31:50.370Z,19.23
2023-05-19T17:34:24.042Z,19.17
2023-05-19T17:36:57.865Z,19.16
2023-05-19T17:39:31.433Z,19.15
2023-05-19T17:42:08.017Z,19.17
2023-05-19T17:44:43.818Z,19.14
2023-05-19T17:47:17.497Z,19.14
2023-05-19T17:49:53.293Z,19.15
2023-05-19T17:52:28.191Z,19.13
2023-05-19T17:55:03.016Z,19.12
2023-05-19T17:57:42.883Z,19.15
2023-05-19T18:00:18.072Z,19.20
2023-05-19T18:02:53.575Z,19.26
2023-05-19T18:05:28.568Z,19.30
2023-05-19T18:08:05.530Z,19.33
2023-05-19T18:10:41.156Z,19.34
2023-05-19T18:13:16.158Z,19.35
2023-05-19T18:15:49.910Z,19.32
2023-05-19T18:18:23.687Z,19.32
2023-05-19T18:20:57.608Z,19.34
2023-05-19T18:23:31.781Z,19.37
2023-05-19T18:26:05.295Z,19.40
2023-05-19T18:28:39.199Z,19.44
2023-05-19T18:31:19.890Z,19.48
2023-05-19T18:33:54.037Z,19.50
2023-05-19T18:36:28.211Z,19.47
2023-05-19T18:39:04.994Z,19.44
2023-05-19T18:41:41.786Z,19.38
2023-05-19T18:44:15.911Z,19.35
2023-05-19T18:46:50.025Z,19.35
2023-05-19T18:49:25.310Z,19.35
2023-05-19T18:51:58.973Z,19.37
2023-05-19T18:54:32.992Z,19.39
2023-05-19T18:57:07.090Z,19.41
2023-05-19T18:59:41.266Z,19.42
2023-05-19T19:02:16.846Z,19.42
2023-05-19T19:04:51.688Z,19.42
2023-05-19T19:07:25.824Z,19.37
2023-05-19T19:10:01.777Z,19.31
2023-05-19T19:12:36.489Z,19.29
2023-05-19T19:15:15.629Z,19.28
2023-05-19T19:17:50.671Z,19.28
2023-05-19T19:20:24.526Z,19.27
2023-05-19T19:23:02.268Z,19.26
2023-05-19T19:25:38.087Z,19.25
2023-05-19T19:28:12.183Z,19.24
2023-05-19T19:30:45.883Z,19.22
2023-05-19T19:33:20.916Z,19.20
2023-05-19T19:35:54.854Z,19.20
2023-05-19T19:38:30.748Z,19.21
2023-05-19T19:41:04.707Z,19.21
2023-05-19T19:43:38.487Z,19.19
2023-05-19T19:46:20.111Z,19.15
2023-05-19T19:48:53.788Z,19.10
2023-05-19T19:51:28.723Z,19.07
2023-05-19T19:54:02.877Z,19.05
2023-05-19T19:56:36.639Z,19.01
2023-05-19T19:59:11.700Z,18.97
2023-05-19T20:01:45.630Z,18.94
2023-05-19T20:04:19.504Z,18.91
2023-05-19T20:06:53.327Z,18.93
2023-05-19T20:09:30.174Z,18.93
2023-05-19T20:12:04.354Z,18.93
2023-05-19T20:14:40.452Z,18.93
2023-05-19T20:17:14.131Z,18.96
2023-05-19T20:19:50.052Z,18.96
2023-05-19T20:22:23.662Z,18.97
2023-05-19T20:24:58.113Z,19.00
2023-05-19T20:27:31.833Z,19.04
2023-05-19T20:30:05.607Z,19.06
2023-05-19T20:32:40.233Z,19.05
2023-05-19T20:35:15.485Z,19.04
2023-05-19T20:37:49.872Z,19.03
2023-05-19T20:40:23.981Z,19.03
2023-05-19T20:42:57.823Z,19.03
2023-05-19T20:45:33.988Z,19.01
2023-05-19T20:48:08.381Z,18.97
2023-05-19T20:50:43.236Z,18.94
2023-05-19T20:53:20.864Z,18.91
2023-05-19T20:55:56.629Z,18.82
2023-05-19T20:58:32.874Z,18.78
2023-05-19T21:01:06.778Z,18.77
2023-05-19T21:03:40.811Z,18.77
2023-05-19T21:06:14.853Z,18.80
2023-05-19T21:08:49.051Z,18.83
2023-05-19T21:11:24.799Z,18.85
2023-05-19T21:13:58.469Z,18.85
2023-05-19T21:16:32.539Z,18.86
2023-05-19T21:19:06.976Z,18.86
2023-05-19T21:21:43.388Z,18.87
2023-05-19T21:24:17.426Z,18.89
2023-05-19T21:26:51.952Z,18.89
2023-05-19T21:29:26.357Z,18.91
2023-05-19T21:32:00.228Z,18.91
2023-05-19T21:34:33.818Z,18.92
2023-05-19T21:37:07.853Z,18.89
2023-05-19T21:39:41.548Z,18.84
2023-05-19T21:42:15.497Z,18.81
2023-05-19T21:44:49.022Z,18.76
2023-05-19T21:47:22.512Z,18.73
2023-05-19T21:49:56.141Z,18.73
2023-05-19T21:52:29.976Z,18.72
2023-05-19T21:55:03.561Z,18.69
2023-05-19T21:57:38.657Z,18.60
2023-05-19T22:00:14.285Z,18.55
2023-05-19T22:02:47.895Z,18.52
2023-05-19T22:05:21.828Z,18.52
2023-05-19T22:07:55.599Z,18.52
2023-05-19T22:10:29.632Z,18.55
2023-05-19T22:13:03.477Z,18.59
2023-05-19T22:15:37.088Z,18.62
2023-05-19T22:18:10.593Z,18.61
2023-05-19T22:20:44.296Z,18.60
2023-05-19T22:23:17.818Z,18.60
2023-05-19T22:25:51.859Z,18.60
2023-05-19T22:28:25.494Z,18.60
2023-05-19T22:30:58.902Z,18.61
2023-05-19T22:33:32.820Z,18.62
2023-05-19T22:36:08.909Z,18.60
2023-05-19T22:38:42.939Z,18.57
2023-05-19T22:41:16.489Z,18.51
2023-05-19T22:43:50.017Z,18.47
2023-05-19T22:46:23.688Z,18.46
2023-05-19T22:48:57.211Z,18.43
2023-05-19T22:51:31.921Z,18.43
2023-05-19T22:54:05.916Z,18.43
2023-05-19T22:56:39.513Z,18.42
2023-05-19T22:59:14.676Z,18.41
2023-05-19T23:01:48.283Z,18.38
2023-05-19T23:04:22.248Z,18.33
2023-05-19T23:06:57.931Z,18.29
2023-05-19T23:09:31.548Z,18.26
2023-05-19T23:12:05.497Z,18.24
2023-05-19T23:14:40.656Z,18.22
2023-05-19T23:17:14.411Z,18.21
2023-05-19T23:19:48.716Z,18.21
2023-05-19T23:22:22.445Z,18.17
2023-05-19T23:24:56.345Z,18.14
2023-05-19T23:27:29.954Z,18.09
2023-05-19T23:30:03.733Z,18.06
2023-05-19T23:32:37.790Z,18.00
2023-05-19T23:35:16.130Z,17.98
2023-05-19T23:37:50.267Z,17.96
2023-05-19T23:40:24.300Z,17.95
2023-05-19T23:42:58.337Z,17.92
2023-05-19T23:45:32.097Z,17.89
2023-05-19T23:48:06.091Z,17.86
2023-05-19T23:50:39.997Z,17.83
2023-05-19T23:53:13.892Z,17.81
2023-05-19T23:55:48.652Z,17.80
2023-05-19T23:58:23.812Z,17.80
